This is the latest recevied weather packets stored in our database for station/object HB9CJD-1. If no packets are shown the sender has not sent any weather packets the latest 10 day(s).
| Time | Temp. | Humidity | Pressure | Rain* | Wind** | Luminosity | Snow |
|---|---|---|---|---|---|---|---|
| 1777544523 | 16.11° C | 39% | 1023.7 hPa | - | - | - | - |
| 1777544523 | 16.11° C | 39% | 1023.7 hPa | - | - | - | - |
| 1777543920 | 16.11° C | 37% | 1023.7 hPa | - | - | - | - |
| 1777543919 | 16.11° C | 37% | 1023.7 hPa | - | - | - | - |
| 1777542713 | 15° C | 41% | 1024 hPa | - | - | - | - |
| 1777542110 | 14.44° C | 40% | 1024 hPa | - | - | - | - |
| 1777542110 | 14.44° C | 40% | 1024 hPa | - | - | - | - |
| 1777541506 | 13.89° C | 43% | 1024 hPa | - | - | - | - |
| 1777541506 | 13.89° C | 43% | 1024 hPa | - | - | - | - |
| 1777540903 | 13.89° C | 41% | 1024 hPa | - | - | - | - |
| 1777540903 | 13.89° C | 41% | 1024 hPa | - | - | - | - |
| 1777540300 | 13.33° C | 43% | 1024.2 hPa | - | - | - | - |
| 1777540300 | 13.33° C | 43% | 1024.2 hPa | - | - | - | - |
| 1777539697 | 13.33° C | 43% | 1024.1 hPa | - | - | - | - |
| 1777539697 | 13.33° C | 43% | 1024.1 hPa | - | - | - | - |
| 1777537887 | 12.22° C | 44% | 1024 hPa | - | - | - | - |
| 1777537887 | 12.22° C | 44% | 1024 hPa | - | - | - | - |
| 1777537284 | 12.22° C | 46% | 1024 hPa | - | - | - | - |
| 1777537284 | 12.22° C | 46% | 1024 hPa | - | - | - | - |
| 1777536681 | 11.67° C | 48% | 1024 hPa | - | - | - | - |
| 1777536680 | 11.67° C | 48% | 1024 hPa | - | - | - | - |
| 1777535474 | 10.56° C | 49% | 1023.9 hPa | - | - | - | - |
| 1777535474 | 10.56° C | 49% | 1023.9 hPa | - | - | - | - |
| 1777534268 | 9.44° C | 50% | 1024 hPa | - | - | - | - |
| 1777534268 | 9.44° C | 50% | 1024 hPa | - | - | - | - |
* Rain since midnight (hover to see other rain measurements)
** Current wind speed in m/s (hover to see current wind gust speed)